Time;durP1;ratioP1;P1;durP2;ratioP2;P2;SDS_P1;SDS_P2;PMS_P1;PMS_P2;Temp;Humidity;BMP_temperature;BMP_pressure;BME280_temperature;BME280_humidity;BME280_pressure;Samples;Min_cycle;Max_cycle;Signal;HPM_P1;HPM_P2
2023/04/11 00:00:16;;;;;;;;;;;;;;;19.19;52.85;99160.66;2084710;28;19968;-48
2023/04/11 00:01:18;;;;;;;;;;;;;;;19.16;52.60;99167.25;2082955;28;20398;-49
2023/04/11 00:02:18;;;;;;;;;;;;;;;19.17;52.73;99168.13;2082550;28;19932;-48
2023/04/11 00:03:21;;;;;;;;;;;;;;;19.15;52.93;99164.78;2086828;28;19928;-49
2023/04/11 00:04:24;;;;;;;;;;;;;;;19.17;52.39;99173.50;2085614;28;19933;-47
2023/04/11 00:05:25;;;;;;;;;;;;;;;19.15;52.50;99167.47;2084913;28;19924;-49
2023/04/11 00:06:26;;;;;;;;;;;;;;;19.14;52.83;99163.13;2085833;28;22159;-47
2023/04/11 00:07:27;;;;;;;;;;;;;;;19.13;52.85;99162.28;2086784;28;19936;-49
2023/04/11 00:08:28;;;;;;;;;;;;;;;19.13;52.37;99173.03;2085396;28;20479;-47
2023/04/11 00:09:30;;;;;;;;;;;;;;;19.13;53.07;99174.91;2080392;28;19939;-47
2023/04/11 00:10:30;;;;;;;;;;;;;;;19.13;53.16;99177.59;2083721;28;19958;-48
2023/04/11 00:11:32;;;;;;;;;;;;;;;19.11;52.71;99172.41;2083826;28;19929;-48
2023/04/11 00:12:32;;;;;;;;;;;;;;;19.10;52.66;99167.22;2085730;28;20364;-47
2023/04/11 00:13:34;;;;;;;;;;;;;;;19.09;53.19;99168.25;2078846;28;19982;-47
2023/04/11 00:14:34;;;;;;;;;;;;;;;19.08;53.26;99170.09;2079879;28;19929;-52
2023/04/11 00:15:36;;;;;;;;;;;;;;;19.07;52.88;99157.69;2081373;28;20336;-53
2023/04/11 00:16:36;;;;;;;;;;;;;;;19.09;52.86;99160.19;2089451;28;20404;-48
2023/04/11 00:17:38;;;;;;;;;;;;;;;19.09;52.86;99157.50;2083581;28;20006;-48
2023/04/11 00:18:43;;;;;;;;;;;;;;;19.06;52.55;99152.53;2082855;28;19993;-52
2023/04/11 00:19:45;;;;;;;;;;;;;;;19.05;52.96;99164.28;2087448;28;19933;-50
2023/04/11 00:20:46;;;;;;;;;;;;;;;19.05;52.87;99158.91;2085496;28;19936;-48
2023/04/11 00:21:47;;;;;;;;;;;;;;;19.04;52.86;99160.75;2086902;28;20325;-49
2023/04/11 00:22:48;;;;;;;;;;;;;;;19.05;52.53;99161.59;2088992;28;20415;-49
2023/04/11 00:23:49;;;;;;;;;;;;;;;19.03;52.47;99150.19;2086944;28;19928;-50
2023/04/11 00:24:51;;;;;;;;;;;;;;;19.02;53.01;99146.69;2086327;28;20834;-47
2023/04/11 00:25:53;;;;;;;;;;;;;;;19.02;53.07;99146.69;2083663;28;20512;-49
2023/04/11 00:26:53;;;;;;;;;;;;;;;18.99;53.21;99139.00;2082807;28;19936;-47
2023/04/11 00:27:55;;;;;;;;;;;;;;;18.98;53.17;99140.03;2085532;28;19932;-49
2023/04/11 00:28:55;;;;;;;;;;;;;;;18.98;52.92;99132.78;2081763;28;20330;-48
2023/04/11 00:29:57;;;;;;;;;;;;;;;18.98;52.73;99132.78;2085009;28;19929;-53
2023/04/11 00:30:57;;;;;;;;;;;;;;;18.95;53.18;99127.81;2082911;28;20024;-51
2023/04/11 00:31:58;;;;;;;;;;;;;;;18.97;52.80;99125.78;2087355;28;20308;-48
2023/04/11 00:32:59;;;;;;;;;;;;;;;18.96;53.11;99124.09;2086895;28;21102;-49
2023/04/11 00:34:02;;;;;;;;;;;;;;;18.95;52.48;99127.81;2083888;28;19936;-47
2023/04/11 00:35:02;;;;;;;;;;;;;;;18.94;53.08;99120.78;2083050;28;19932;-52
2023/04/11 00:36:04;;;;;;;;;;;;;;;18.93;52.74;99121.78;2081955;28;19932;-48
2023/04/11 00:37:04;;;;;;;;;;;;;;;18.94;52.75;99119.94;2088623;28;19932;-53
2023/04/11 00:38:06;;;;;;;;;;;;;;;18.91;53.10;99115.78;2086483;28;19936;-53
2023/04/11 00:39:06;;;;;;;;;;;;;;;18.92;53.11;99109.38;2086624;28;19924;-56
2023/04/11 00:40:11;;;;;;;;;;;;;;;18.92;53.01;99117.44;2088131;28;20012;-51
2023/04/11 00:41:11;;;;;;;;;;;;;;;18.90;52.68;99103.38;2083900;28;19963;-52
2023/04/11 00:42:12;;;;;;;;;;;;;;;18.89;53.23;99101.72;2088212;28;20393;-52
2023/04/11 00:43:13;;;;;;;;;;;;;;;18.89;53.44;99101.72;2085597;28;20214;-52
2023/04/11 00:44:15;;;;;;;;;;;;;;;18.90;52.83;99103.38;2083169;28;19986;-48
2023/04/11 00:45:15;;;;;;;;;;;;;;;18.87;53.38;99093.00;2078592;28;19933;-52
2023/04/11 00:46:17;;;;;;;;;;;;;;;18.87;53.18;99093.00;2081957;28;19937;-49
2023/04/11 00:47:18;;;;;;;;;;;;;;;18.88;53.30;99099.22;2085605;28;19929;-51
2023/04/11 00:48:20;;;;;;;;;;;;;;;18.86;52.92;99094.03;2086685;28;19928;-50
2023/04/11 00:49:22;;;;;;;;;;;;;;;18.86;52.97;99096.72;2087659;28;19925;-50
2023/04/11 00:50:23;;;;;;;;;;;;;;;18.84;53.37;99082.66;2082530;27;19939;-49
2023/04/11 00:51:24;;;;;;;;;;;;;;;18.84;53.17;99088.03;2087280;28;19932;-50
2023/04/11 00:52:26;;;;;;;;;;;;;;;18.84;53.18;99087.19;2087676;28;19977;-49
2023/04/11 00:53:31;;;;;;;;;;;;;;;18.84;53.32;99090.72;2088011;28;19961;-48
2023/04/11 00:54:32;;;;;;;;;;;;;;;18.83;53.01;99090.88;2086953;28;19936;-49
2023/04/11 00:55:33;;;;;;;;;;;;;;;18.84;53.25;99089.88;2086709;27;19928;-48
2023/04/11 00:56:34;;;;;;;;;;;;;;;18.82;53.19;99089.25;2082589;28;21810;-50
2023/04/11 00:57:35;;;;;;;;;;;;;;;18.80;53.19;99094.78;2085227;28;19979;-53
2023/04/11 00:58:37;;;;;;;;;;;;;;;18.80;52.74;99089.41;2081061;28;19936;-51
2023/04/11 00:59:38;;;;;;;;;;;;;;;18.81;53.09;99093.78;2082409;28;19939;-49
2023/04/11 01:00:40;;;;;;;;;;;;;;;18.80;53.04;99097.47;2080400;28;19928;-50
2023/04/11 01:01:42;;;;;;;;;;;;;;;18.80;53.08;99097.47;2078501;28;21829;-51
2023/04/11 01:02:42;;;;;;;;;;;;;;;18.81;52.88;99099.16;2084198;28;20018;-50
2023/04/11 01:03:44;;;;;;;;;;;;;;;18.80;53.14;99102.84;2082628;28;20343;-48
2023/04/11 01:04:46;;;;;;;;;;;;;;;18.77;53.14;99099.72;2084117;28;20701;-51
2023/04/11 01:05:48;;;;;;;;;;;;;;;18.77;52.81;99094.34;2081525;28;19936;-51
2023/04/11 01:06:51;;;;;;;;;;;;;;;18.77;52.86;99102.41;2083620;28;19929;-49
2023/04/11 01:07:54;;;;;;;;;;;;;;;18.78;53.12;99098.69;2088451;28;19936;-48
2023/04/11 01:08:55;;;;;;;;;;;;;;;18.77;53.46;99097.88;2086410;28;20030;-48
2023/04/11 01:09:57;;;;;;;;;;;;;;;18.78;53.09;99102.25;2090054;28;19971;-48
2023/04/11 01:10:58;;;;;;;;;;;;;;;18.77;53.10;99099.72;2081474;28;19925;-53
2023/04/11 01:12:00;;;;;;;;;;;;;;;18.77;52.98;99099.72;2079239;28;19962;-52
2023/04/11 01:13:01;;;;;;;;;;;;;;;18.75;53.11;99102.63;2081180;28;19928;-52
2023/04/11 01:14:03;;;;;;;;;;;;;;;18.74;53.18;99103.63;2081149;27;20010;-52
2023/04/11 01:15:04;;;;;;;;;;;;;;;18.73;53.13;99101.94;2083135;28;20534;-49
2023/04/11 01:16:06;;;;;;;;;;;;;;;18.76;52.90;99104.28;2082216;28;19985;-49
2023/04/11 01:17:06;;;;;;;;;;;;;;;18.74;53.31;99104.47;2082295;28;20311;-54
2023/04/11 01:18:08;;;;;;;;;;;;;;;18.75;53.20;99102.63;2086187;28;19936;-52
2023/04/11 01:19:08;;;;;;;;;;;;;;;18.75;53.12;99105.31;2081426;28;19967;-51
2023/04/11 01:20:12;;;;;;;;;;;;;;;18.75;53.32;99105.31;2081546;28;20393;-51
2023/04/11 01:21:12;;;;;;;;;;;;;;;18.73;53.35;99105.47;2085802;28;19932;-53
2023/04/11 01:22:16;;;;;;;;;;;;;;;18.73;52.76;99107.31;2087792;28;19932;-51
2023/04/11 01:23:20;;;;;;;;;;;;;;;18.72;53.36;99117.25;2088282;28;20058;-49
2023/04/11 01:24:21;;;;;;;;;;;;;;;18.73;53.38;99115.38;2086506;28;19928;-49
2023/04/11 01:25:22;;;;;;;;;;;;;;;18.73;53.32;99113.53;2087957;28;19929;-48
2023/04/11 01:26:23;;;;;;;;;;;;;;;18.72;52.97;99109.19;2086444;28;20051;-47
2023/04/11 01:27:24;;;;;;;;;;;;;;;18.70;53.29;99118.47;2086118;28;19977;-51
2023/04/11 01:28:25;;;;;;;;;;;;;;;18.70;53.08;99116.59;2086956;28;19983;-48
2023/04/11 01:29:26;;;;;;;;;;;;;;;18.71;53.16;99117.44;2086566;28;20880;-49
2023/04/11 01:30:27;;;;;;;;;;;;;;;18.73;52.93;99118.06;2081965;28;19982;-51
2023/04/11 01:31:28;;;;;;;;;;;;;;;18.71;53.25;99110.19;2080960;28;19924;-48
2023/04/11 01:32:29;;;;;;;;;;;;;;;18.71;53.24;99112.88;2083732;28;19958;-51
2023/04/11 01:33:30;;;;;;;;;;;;;;;18.73;52.95;99110.00;2086029;28;19929;-49
2023/04/11 01:34:32;;;;;;;;;;;;;;;18.73;53.22;99108.16;2082092;28;21358;-52
2023/04/11 01:35:32;;;;;;;;;;;;;;;18.71;52.97;99099.44;2081256;28;19978;-50
2023/04/11 01:36:35;;;;;;;;;;;;;;;18.67;53.07;99106.25;2086664;28;19970;-50
2023/04/11 01:37:35;;;;;;;;;;;;;;;18.69;53.21;99104.19;2086365;28;20363;-51
2023/04/11 01:38:38;;;;;;;;;;;;;;;18.70;52.83;99113.91;2086599;28;19939;-52
2023/04/11 01:39:39;;;;;;;;;;;;;;;18.70;53.27;99103.16;2085181;28;19982;-52
2023/04/11 01:40:41;;;;;;;;;;;;;;;18.67;53.21;99100.03;2087046;28;20635;-52
2023/04/11 01:41:42;;;;;;;;;;;;;;;18.68;53.13;99097.16;2082548;28;20803;-48
2023/04/11 01:42:44;;;;;;;;;;;;;;;18.70;52.96;99096.97;2081426;28;19936;-53
2023/04/11 01:43:45;;;;;;;;;;;;;;;18.71;52.81;99093.25;2081961;28;19932;-51
2023/04/11 01:44:46;;;;;;;;;;;;;;;18.70;52.98;99092.41;2081642;28;19935;-48
2023/04/11 01:45:47;;;;;;;;;;;;;;;18.74;52.96;99087.50;2086254;28;19932;-48
2023/04/11 01:46:48;;;;;;;;;;;;;;;18.73;52.87;99091.19;2082699;28;19932;-50
2023/04/11 01:47:49;;;;;;;;;;;;;;;18.71;52.97;99093.25;2083386;28;20357;-50
2023/04/11 01:48:52;;;;;;;;;;;;;;;18.67;52.95;99092.81;2087707;28;19924;-48
2023/04/11 01:49:54;;;;;;;;;;;;;;;18.66;52.71;99087.63;2088118;28;19928;-52
2023/04/11 01:50:56;;;;;;;;;;;;;;;18.66;53.21;99085.75;2087837;28;19929;-52
2023/04/11 01:51:56;;;;;;;;;;;;;;;18.67;52.90;99086.59;2086850;28;19929;-53
2023/04/11 01:52:58;;;;;;;;;;;;;;;18.70;52.99;99080.84;2084522;28;20390;-51
2023/04/11 01:53:59;;;;;;;;;;;;;;;18.69;53.11;99085.41;2083320;28;19963;-50
2023/04/11 01:55:01;;;;;;;;;;;;;;;18.66;53.02;99080.38;2085308;28;19952;-53
2023/04/11 01:56:02;;;;;;;;;;;;;;;18.66;52.86;99080.38;2085677;28;19924;-49
2023/04/11 01:57:04;;;;;;;;;;;;;;;18.67;52.98;99081.22;2083540;28;20027;-50
2023/04/11 01:58:04;;;;;;;;;;;;;;;18.62;52.98;99079.13;2087674;28;19932;-48
2023/04/11 01:59:06;;;;;;;;;;;;;;;18.63;52.87;99080.75;2087886;28;20449;-48
2023/04/11 02:00:07;;;;;;;;;;;;;;;18.60;52.94;99081.16;2086305;28;19925;-50
2023/04/11 02:01:09;;;;;;;;;;;;;;;18.62;52.96;99079.13;2086924;28;19924;-52
2023/04/11 02:02:09;;;;;;;;;;;;;;;18.65;52.73;99078.72;2087834;28;19928;-52
2023/04/11 02:03:10;;;;;;;;;;;;;;;18.64;52.80;99076.25;2085968;28;20580;-48
2023/04/11 02:04:11;;;;;;;;;;;;;;;18.63;53.13;99079.94;2086958;28;19925;-49
2023/04/11 02:05:12;;;;;;;;;;;;;;;18.64;53.00;99073.56;2087211;28;19991;-49
2023/04/11 02:06:14;;;;;;;;;;;;;;;18.63;52.88;99077.25;2085825;28;19929;-52
2023/04/11 02:07:15;;;;;;;;;;;;;;;18.62;52.90;99076.44;2086110;28;20984;-51
2023/04/11 02:08:16;;;;;;;;;;;;;;;18.62;52.69;99086.34;2087503;28;19928;-51
2023/04/11 02:09:19;;;;;;;;;;;;;;;18.60;52.95;99075.78;2086038;28;19936;-49
2023/04/11 02:10:19;;;;;;;;;;;;;;;18.59;52.76;99076.81;2087178;28;20416;-51
2023/04/11 02:11:20;;;;;;;;;;;;;;;18.59;53.08;99079.50;2086075;28;19978;-48
2023/04/11 02:12:21;;;;;;;;;;;;;;;18.56;53.07;99079.06;2082676;28;20591;-48
2023/04/11 02:13:22;;;;;;;;;;;;;;;18.58;53.14;99074.31;2085815;28;19986;-49
2023/04/11 02:14:24;;;;;;;;;;;;;;;18.56;53.06;99074.53;2085413;28;19986;-49
2023/04/11 02:15:25;;;;;;;;;;;;;;;18.56;52.92;99079.06;2083102;28;19931;-49
2023/04/11 02:16:28;;;;;;;;;;;;;;;18.58;52.84;99071.63;2079449;28;19929;-50
2023/04/11 02:17:30;;;;;;;;;;;;;;;18.58;52.92;99071.63;2087784;28;20501;-49
2023/04/11 02:18:31;;;;;;;;;;;;;;;18.58;52.71;99071.63;2086337;28;20638;-49
2023/04/11 02:19:33;;;;;;;;;;;;;;;18.56;52.84;99068.31;2090108;28;19928;-48
2023/04/11 02:20:33;;;;;;;;;;;;;;;18.56;52.98;99069.16;2086615;28;21143;-50
2023/04/11 02:21:35;;;;;;;;;;;;;;;18.58;52.87;99071.63;2084322;28;20918;-49
2023/04/11 02:22:35;;;;;;;;;;;;;;;18.58;52.93;99071.63;2084285;28;20751;-51
2023/04/11 02:23:37;;;;;;;;;;;;;;;18.58;52.93;99066.25;2089129;28;20010;-50
2023/04/11 02:24:39;;;;;;;;;;;;;;;18.56;53.03;99062.94;2087735;28;19974;-51
2023/04/11 02:25:41;;;;;;;;;;;;;;;18.53;53.06;99067.69;2085017;28;20391;-48
2023/04/11 02:26:42;;;;;;;;;;;;;;;18.52;53.08;99068.69;2086014;28;19929;-47
2023/04/11 02:27:43;;;;;;;;;;;;;;;18.54;52.91;99065.81;2089988;28;20374;-52
2023/04/11 02:28:44;;;;;;;;;;;;;;;18.50;52.94;99070.75;2087700;28;20684;-51
2023/04/11 02:29:45;;;;;;;;;;;;;;;18.52;52.94;99071.38;2086616;28;19962;-51
2023/04/11 02:30:45;;;;;;;;;;;;;;;18.53;52.88;99074.91;2083907;28;19986;-49
2023/04/11 02:31:48;;;;;;;;;;;;;;;18.52;52.89;99074.06;2086122;28;19978;-49
2023/04/11 02:32:49;;;;;;;;;;;;;;;18.49;52.97;99074.44;2090869;28;19959;-49
2023/04/11 02:33:50;;;;;;;;;;;;;;;18.47;53.22;99073.81;2087440;28;20493;-49
2023/04/11 02:34:51;;;;;;;;;;;;;;;18.49;52.71;99073.63;2087812;28;19928;-48
2023/04/11 02:35:52;;;;;;;;;;;;;;;18.49;52.87;99065.56;2088436;28;19928;-47
2023/04/11 02:36:52;;;;;;;;;;;;;;;18.49;53.04;99062.88;2087608;28;19930;-47
2023/04/11 02:37:54;;;;;;;;;;;;;;;18.48;53.14;99064.72;2089583;28;19979;-48
2023/04/11 02:38:54;;;;;;;;;;;;;;;18.49;52.91;99069.06;2089042;28;19997;-48
2023/04/11 02:39:57;;;;;;;;;;;;;;;18.50;52.94;99067.22;2089590;28;19978;-49
2023/04/11 02:40:59;;;;;;;;;;;;;;;18.48;52.88;99066.59;2085167;28;19925;-49
2023/04/11 02:42:00;;;;;;;;;;;;;;;18.48;52.68;99067.41;2085588;28;20373;-50
2023/04/11 02:43:00;;;;;;;;;;;;;;;18.48;52.75;99072.78;2084937;28;19975;-48
2023/04/11 02:44:02;;;;;;;;;;;;;;;18.48;53.09;99071.97;2084118;28;19990;-49
2023/04/11 02:45:02;;;;;;;;;;;;;;;18.43;52.91;99072.53;2087460;28;19933;-49
2023/04/11 02:46:05;;;;;;;;;;;;;;;18.44;53.10;99070.66;2089355;28;19932;-48
2023/04/11 02:47:05;;;;;;;;;;;;;;;18.42;53.19;99073.56;2079658;28;19925;-49
2023/04/11 02:48:07;;;;;;;;;;;;;;;18.44;52.96;99076.03;2085563;28;20045;-48
2023/04/11 02:49:07;;;;;;;;;;;;;;;18.44;52.75;99067.97;2074552;28;19951;-49
2023/04/11 02:50:09;;;;;;;;;;;;;;;18.43;52.93;99069.00;2076321;28;19994;-48
2023/04/11 02:51:10;;;;;;;;;;;;;;;18.43;53.08;99074.38;2075409;28;19982;-46
2023/04/11 02:52:11;;;;;;;;;;;;;;;18.42;53.08;99065.50;2076917;28;19929;-51
2023/04/11 02:53:11;;;;;;;;;;;;;;;18.43;52.97;99071.69;2073944;28;20528;-49
2023/04/11 02:54:13;;;;;;;;;;;;;;;18.43;52.93;99064.47;2082899;28;20047;-53
2023/04/11 02:55:15;;;;;;;;;;;;;;;18.42;52.97;99062.81;2076706;28;19929;-49
2023/04/11 02:56:17;;;;;;;;;;;;;;;18.40;53.19;99059.47;2077625;28;19929;-53
2023/04/11 02:57:18;;;;;;;;;;;;;;;18.39;53.15;99057.00;2076857;28;19940;-51
2023/04/11 02:58:20;;;;;;;;;;;;;;;18.39;52.96;99049.78;2076786;28;20015;-52
2023/04/11 02:59:20;;;;;;;;;;;;;;;18.41;52.95;99046.88;2080666;28;19933;-51
2023/04/11 03:00:21;;;;;;;;;;;;;;;18.40;53.10;99037.16;2081093;28;19974;-52
2023/04/11 03:01:23;;;;;;;;;;;;;;;18.39;53.06;99047.09;2080476;28;19990;-50
2023/04/11 03:02:25;;;;;;;;;;;;;;;18.40;52.84;99042.53;2080943;28;20326;-52
2023/04/11 03:03:26;;;;;;;;;;;;;;;18.39;52.82;99030.16;2079750;28;20023;-51
2023/04/11 03:04:27;;;;;;;;;;;;;;;18.37;52.83;99040.25;2082533;28;21815;-51
2023/04/11 03:05:27;;;;;;;;;;;;;;;18.38;52.87;99033.84;2079812;28;19956;-48
2023/04/11 03:06:29;;;;;;;;;;;;;;;18.37;52.81;99037.56;2079372;28;20506;-49
2023/04/11 03:07:29;;;;;;;;;;;;;;;18.35;53.04;99032.38;2079306;28;19978;-52
2023/04/11 03:08:31;;;;;;;;;;;;;;;18.39;53.08;99025.59;2079110;28;19974;-49
2023/04/11 03:09:31;;;;;;;;;;;;;;;18.39;52.92;99024.78;2077734;28;19929;-50
2023/04/11 03:10:34;;;;;;;;;;;;;;;18.38;52.92;99025.78;2079501;28;19929;-46
2023/04/11 03:11:34;;;;;;;;;;;;;;;18.39;52.81;99025.59;2073829;28;19952;-48
2023/04/11 03:12:36;;;;;;;;;;;;;;;18.39;52.84;99020.22;2077958;28;19924;-49
2023/04/11 03:13:38;;;;;;;;;;;;;;;18.40;52.88;99021.06;2074493;28;20287;-47
2023/04/11 03:14:39;;;;;;;;;;;;;;;18.43;52.91;99028.72;2074249;28;19928;-48
2023/04/11 03:15:40;;;;;;;;;;;;;;;18.42;52.65;99024.38;2075395;28;20295;-51
2023/04/11 03:16:41;;;;;;;;;;;;;;;18.41;52.42;99023.53;2080323;28;19935;-47
2023/04/11 03:17:42;;;;;;;;;;;;;;;18.40;52.61;99021.88;2079639;28;20010;-49
2023/04/11 03:18:43;;;;;;;;;;;;;;;18.42;52.85;99019.03;2083352;28;19932;-49
2023/04/11 03:19:44;;;;;;;;;;;;;;;18.42;52.58;99014.47;2079868;28;19929;-49
2023/04/11 03:20:45;;;;;;;;;;;;;;;18.42;53.06;99000.22;2077291;28;20228;-48
2023/04/11 03:21:47;;;;;;;;;;;;;;;18.42;53.10;99001.03;2076542;28;20431;-48
2023/04/11 03:22:48;;;;;;;;;;;;;;;18.41;53.01;98987.78;2072803;28;19929;-48
2023/04/11 03:23:49;;;;;;;;;;;;;;;18.43;52.81;98988.44;2075638;28;19979;-48
2023/04/11 03:24:50;;;;;;;;;;;;;;;18.42;52.81;98984.94;2072933;28;20493;-50
2023/04/11 03:25:54;;;;;;;;;;;;;;;18.43;52.85;98988.44;2074394;28;19933;-47
2023/04/11 03:26:55;;;;;;;;;;;;;;;18.42;52.98;98984.94;2077982;28;19925;-50
2023/04/11 03:27:56;;;;;;;;;;;;;;;18.42;53.19;98987.63;2073961;28;19932;-49
2023/04/11 03:28:57;;;;;;;;;;;;;;;18.43;53.03;98996.50;2069993;28;20094;-49
2023/04/11 03:29:59;;;;;;;;;;;;;;;18.42;52.85;98997.53;2072612;28;19995;-48
2023/04/11 03:30:59;;;;;;;;;;;;;;;18.42;52.69;98995.69;2073743;28;19925;-50
2023/04/11 03:32:00;;;;;;;;;;;;;;;18.42;52.75;98993.00;2080857;28;19935;-48
2023/04/11 03:33:01;;;;;;;;;;;;;;;18.43;52.92;98991.94;2078043;28;19929;-46
2023/04/11 03:34:02;;;;;;;;;;;;;;;18.44;52.76;98990.94;2078020;28;19982;-48
2023/04/11 03:35:03;;;;;;;;;;;;;;;18.46;52.49;98994.25;2075949;28;19929;-48
2023/04/11 03:36:05;;;;;;;;;;;;;;;18.49;52.51;98999.22;2076362;28;19990;-47
2023/04/11 03:37:05;;;;;;;;;;;;;;;18.50;52.33;99010.81;2077997;28;20387;-49
2023/04/11 03:38:07;;;;;;;;;;;;;;;18.52;52.52;99008.75;2078169;28;19929;-48
2023/04/11 03:39:07;;;;;;;;;;;;;;;18.55;52.28;99016.44;2078941;28;20466;-45
2023/04/11 03:40:09;;;;;;;;;;;;;;;18.57;52.00;99024.31;2080139;28;19928;-48
2023/04/11 03:41:11;;;;;;;;;;;;;;;18.57;51.97;99017.06;2088341;28;19928;-49
2023/04/11 03:42:13;;;;;;;;;;;;;;;18.60;51.93;99016.69;2089628;28;19933;-46
2023/04/11 03:43:13;;;;;;;;;;;;;;;18.64;51.85;99014.47;2081282;28;19959;-46
2023/04/11 03:44:15;;;;;;;;;;;;;;;18.70;51.65;99016.34;2089378;28;19928;-47
2023/04/11 03:45:16;;;;;;;;;;;;;;;18.78;51.42;99012.69;2086890;28;20627;-49
2023/04/11 03:46:17;;;;;;;;;;;;;;;18.86;51.19;99016.09;2085362;28;19924;-48
2023/04/11 03:47:18;;;;;;;;;;;;;;;18.89;51.35;99009.50;2086447;28;20461;-49
2023/04/11 03:48:19;;;;;;;;;;;;;;;18.96;51.16;99016.56;2081526;28;19929;-48
2023/04/11 03:49:20;;;;;;;;;;;;;;;19.01;50.91;99012.47;2084121;27;19925;-51
2023/04/11 03:50:21;;;;;;;;;;;;;;;19.07;50.65;99014.38;2083513;28;20021;-49
2023/04/11 03:51:22;;;;;;;;;;;;;;;19.10;50.56;99014.78;2083093;28;19928;-50
2023/04/11 03:52:23;;;;;;;;;;;;;;;19.19;50.63;99018.16;2085767;28;20379;-49
2023/04/11 03:53:24;;;;;;;;;;;;;;;19.25;50.78;99022.75;2082846;28;19928;-52
2023/04/11 03:54:25;;;;;;;;;;;;;;;19.30;50.48;99017.59;2087256;28;20560;-47
2023/04/11 03:55:26;;;;;;;;;;;;;;;19.33;50.63;99021.75;2085769;28;20418;-54
2023/04/11 03:56:28;;;;;;;;;;;;;;;19.36;50.40;99030.28;2088837;28;19940;-51
2023/04/11 03:57:29;;;;;;;;;;;;;;;19.42;50.36;99031.34;2087501;28;19937;-49
2023/04/11 03:58:30;;;;;;;;;;;;;;;19.45;50.32;99030.94;2086507;28;19924;-50
2023/04/11 03:59:31;;;;;;;;;;;;;;;19.49;49.98;99031.34;2086059;28;20540;-49
2023/04/11 04:00:32;;;;;;;;;;;;;;;19.50;50.33;99028.47;2084618;28;20027;-51
2023/04/11 04:01:36;;;;;;;;;;;;;;;19.52;50.03;99033.66;2084509;28;19924;-47
2023/04/11 04:02:38;;;;;;;;;;;;;;;19.54;50.22;99024.34;2084773;28;19978;-54
2023/04/11 04:03:38;;;;;;;;;;;;;;;19.57;50.24;99039.25;2084332;28;19925;-51
2023/04/11 04:04:42;;;;;;;;;;;;;;;19.57;50.18;99031.19;2085469;28;19929;-47
2023/04/11 04:05:42;;;;;;;;;;;;;;;19.57;50.05;99028.50;2084763;28;19932;-53
2023/04/11 04:06:44;;;;;;;;;;;;;;;19.57;50.07;99026.63;2083915;28;19964;-49
2023/04/11 04:07:45;;;;;;;;;;;;;;;19.61;50.04;99029.75;2082297;28;20455;-50
2023/04/11 04:08:46;;;;;;;;;;;;;;;19.61;50.29;99024.34;2079201;28;19963;-47
2023/04/11 04:09:47;;;;;;;;;;;;;;;19.62;49.78;99032.25;2082959;28;19982;-52
2023/04/11 04:10:48;;;;;;;;;;;;;;;19.67;50.08;99025.44;2085179;28;19978;-52
2023/04/11 04:11:50;;;;;;;;;;;;;;;19.69;50.00;99031.47;2082347;28;20375;-53
2023/04/11 04:12:51;;;;;;;;;;;;;;;19.67;50.05;99031.69;2081971;28;20038;-51
2023/04/11 04:13:52;;;;;;;;;;;;;;;19.70;50.14;99028.59;2087490;28;19962;-49
2023/04/11 04:14:53;;;;;;;;;;;;;;;19.73;50.02;99030.06;2083828;28;19928;-49
2023/04/11 04:15:54;;;;;;;;;;;;;;;19.72;50.12;99026.50;2082757;28;19932;-49
2023/04/11 04:16:55;;;;;;;;;;;;;;;19.73;50.08;99027.38;2085845;28;19986;-49
2023/04/11 04:17:55;;;;;;;;;;;;;;;19.75;49.84;99030.66;2082057;28;19936;-51
2023/04/11 04:18:57;;;;;;;;;;;;;;;19.74;50.05;99024.44;2087801;28;20318;-50
2023/04/11 04:19:57;;;;;;;;;;;;;;;19.78;50.01;99025.72;2086273;28;20788;-49
2023/04/11 04:20:59;;;;;;;;;;;;;;;19.77;49.97;99034.00;2085664;28;19933;-47
2023/04/11 04:21:59;;;;;;;;;;;;;;;19.78;50.15;99033.81;2079827;28;19929;-52
2023/04/11 04:23:03;;;;;;;;;;;;;;;19.79;49.68;99032.75;2086331;28;19975;-47
2023/04/11 04:24:04;;;;;;;;;;;;;;;19.79;49.92;99029.25;2086021;28;19924;-52
2023/04/11 04:25:05;;;;;;;;;;;;;;;19.80;49.63;99023.63;2085544;28;19962;-54
2023/04/11 04:26:06;;;;;;;;;;;;;;;19.81;49.93;99030.69;2077606;28;19932;-50
2023/04/11 04:27:09;;;;;;;;;;;;;;;19.82;49.95;99026.97;2087112;28;19924;-53
2023/04/11 04:28:09;;;;;;;;;;;;;;;19.83;49.72;99033.19;2089292;28;19929;-52
2023/04/11 04:29:11;;;;;;;;;;;;;;;19.84;49.88;99030.28;2088230;28;19924;-54
2023/04/11 04:30:14;;;;;;;;;;;;;;;19.83;49.78;99031.31;2082883;28;19936;-50
2023/04/11 04:31:21;;;;;;;;;;;;;;;19.84;49.97;99024.91;2086568;28;19924;-51
2023/04/11 04:32:22;;;;;;;;;;;;;;;19.86;49.59;99027.38;2080587;28;19940;-54
2023/04/11 04:33:24;;;;;;;;;;;;;;;19.84;49.78;99027.59;2087071;28;19974;-50
2023/04/11 04:34:28;;;;;;;;;;;;;;;19.85;49.92;99023.03;2087463;28;19955;-48
2023/04/11 04:35:29;;;;;;;;;;;;;;;19.85;49.61;99013.09;2084394;28;20500;-53
2023/04/11 04:36:29;;;;;;;;;;;;;;;19.87;49.58;99023.69;2086808;28;19929;-50
2023/04/11 04:37:31;;;;;;;;;;;;;;;19.85;49.99;99010.41;2087429;28;19956;-54
2023/04/11 04:38:31;;;;;;;;;;;;;;;19.86;50.02;99017.47;2085920;28;19928;-48
2023/04/11 04:39:33;;;;;;;;;;;;;;;19.85;50.01;99015.78;2088133;28;19924;-54
2023/04/11 04:40:38;;;;;;;;;;;;;;;19.86;49.98;99022.84;2083534;28;19929;-54
2023/04/11 04:41:40;;;;;;;;;;;;;;;19.89;49.77;99023.47;2085257;28;19932;-55
2023/04/11 04:42:42;;;;;;;;;;;;;;;19.91;49.57;99019.53;2082991;28;19981;-53
2023/04/11 04:43:44;;;;;;;;;;;;;;;19.91;49.81;99010.63;2085747;28;19933;-53
2023/04/11 04:44:44;;;;;;;;;;;;;;;19.88;49.72;99009.19;2086958;28;19932;-51
2023/04/11 04:45:46;;;;;;;;;;;;;;;19.86;49.93;99009.41;2088026;28;19986;-52
2023/04/11 04:46:46;;;;;;;;;;;;;;;19.88;49.64;99011.88;2085777;28;19940;-49
2023/04/11 04:47:48;;;;;;;;;;;;;;;19.88;49.84;99013.75;2087331;28;20012;-52
2023/04/11 04:48:48;;;;;;;;;;;;;;;19.91;49.84;99010.63;2087539;28;20001;-47
2023/04/11 04:49:54;;;;;;;;;;;;;;;19.89;49.83;99004.63;2087206;28;19929;-51
2023/04/11 04:50:54;;;;;;;;;;;;;;;19.91;49.66;99010.63;2084640;28;19940;-51
2023/04/11 04:51:56;;;;;;;;;;;;;;;19.91;49.66;99014.16;2081640;28;19972;-53
2023/04/11 04:52:56;;;;;;;;;;;;;;;19.90;49.98;99007.13;2082235;28;19929;-49
2023/04/11 04:53:58;;;;;;;;;;;;;;;19.90;49.96;99006.28;2082768;28;19929;-50
2023/04/11 04:54:58;;;;;;;;;;;;;;;19.89;49.87;99010.00;2082913;28;19929;-48
2023/04/11 04:56:00;;;;;;;;;;;;;;;19.89;49.91;99008.13;2082882;28;19925;-54
2023/04/11 04:57:01;;;;;;;;;;;;;;;19.90;49.86;99004.44;2080752;28;19985;-49
2023/04/11 04:58:04;;;;;;;;;;;;;;;19.86;49.75;99000.47;2082425;28;20341;-51
2023/04/11 04:59:04;;;;;;;;;;;;;;;19.89;50.01;98996.53;2081303;28;20035;-50
2023/04/11 05:00:10;;;;;;;;;;;;;;;19.88;49.82;98998.41;2084876;28;19924;-47
2023/04/11 05:01:11;;;;;;;;;;;;;;;19.89;49.93;99002.75;2083367;28;19940;-47
2023/04/11 05:02:12;;;;;;;;;;;;;;;19.91;49.71;98995.31;2081015;28;20047;-52
2023/04/11 05:03:16;;;;;;;;;;;;;;;19.89;49.93;98985.78;2084386;28;19928;-46
2023/04/11 05:04:17;;;;;;;;;;;;;;;19.91;49.86;98989.09;2089581;28;20432;-49
2023/04/11 05:05:17;;;;;;;;;;;;;;;19.91;49.74;98997.19;2083835;28;19924;-49
2023/04/11 05:06:19;;;;;;;;;;;;;;;19.90;49.72;98988.28;2081871;28;19974;-54
2023/04/11 05:07:21;;;;;;;;;;;;;;;19.90;50.06;98988.28;2085140;28;20547;-49
2023/04/11 05:08:21;;;;;;;;;;;;;;;19.89;49.80;98983.09;2082912;28;19932;-50
2023/04/11 05:09:22;;;;;;;;;;;;;;;19.91;50.03;98989.09;2087903;28;19939;-47
2023/04/11 05:10:23;;;;;;;;;;;;;;;19.90;49.79;98993.66;2087561;28;19928;-51
2023/04/11 05:11:25;;;;;;;;;;;;;;;19.89;49.62;98991.16;2088073;28;20460;-55
2023/04/11 05:12:26;;;;;;;;;;;;;;;19.87;49.69;98996.75;2087650;28;20784;-49
2023/04/11 05:13:28;;;;;;;;;;;;;;;19.86;49.79;98995.09;2087090;28;19932;-53
2023/04/11 05:14:30;;;;;;;;;;;;;;;19.87;49.70;99002.16;2084318;28;19978;-50
2023/04/11 05:15:30;;;;;;;;;;;;;;;19.88;49.82;98997.59;2086494;28;19977;-53
2023/04/11 05:16:32;;;;;;;;;;;;;;;19.85;50.06;98994.25;2081155;27;21074;-48
2023/04/11 05:17:32;;;;;;;;;;;;;;;19.85;49.96;98999.63;2084547;28;19929;-52
2023/04/11 05:18:34;;;;;;;;;;;;;;;19.85;49.98;99001.50;2082465;28;20388;-49
2023/04/11 05:19:34;;;;;;;;;;;;;;;19.86;50.14;99001.31;2085224;28;19924;-47